Terminal Aerodrome Forecast
Issued by NWS

Home | Current Version | Previous Version | Graphics & Text | Print | Product List | Glossary On
Versions: 1 2 3 4 5 6 7 8 9 10 11 12 13 14 15 16 17 18
000
FTUS43 KGRB 131700
TAFAUW
TAF
KAUW 131735Z 1318/1418 01010KT P6SM FEW006 SCT012 OVC025
     FM132300 01015KT 4SM -RA BR OVC010
     FM140300 35015G21KT 6SM -RASN OVC007
     FM140500 34015G22KT 2SM -SN BR OVC007
     FM141200 33015G22KT 6SM -SN SCT007 OVC015=

USA.gov is the U.S. government's official web portal to all federal, state and local government web resources and services.